sensor_id;sensor_type;location;lat;lon;timestamp;P1;durP1;ratioP1;P2;durP2;ratioP2
52742;SDS011;55583;53.012;6.556;2023-06-22T00:00:52;62.05;;;38.38;;
52742;SDS011;55583;53.012;6.556;2023-06-22T00:03:18;59.33;;;38.65;;
52742;SDS011;55583;53.012;6.556;2023-06-22T00:05:45;61.42;;;39.17;;
52742;SDS011;55583;53.012;6.556;2023-06-22T00:08:11;58.85;;;38.47;;
52742;SDS011;55583;53.012;6.556;2023-06-22T00:10:37;60.90;;;38.72;;
52742;SDS011;55583;53.012;6.556;2023-06-22T00:13:03;71.63;;;41.92;;
52742;SDS011;55583;53.012;6.556;2023-06-22T00:15:30;62.38;;;41.55;;
52742;SDS011;55583;53.012;6.556;2023-06-22T00:17:56;68.45;;;41.97;;
52742;SDS011;55583;53.012;6.556;2023-06-22T00:20:22;66.57;;;41.85;;
52742;SDS011;55583;53.012;6.556;2023-06-22T00:22:52;69.82;;;42.25;;
52742;SDS011;55583;53.012;6.556;2023-06-22T00:25:19;65.88;;;41.10;;
52742;SDS011;55583;53.012;6.556;2023-06-22T00:27:44;70.63;;;41.80;;
52742;SDS011;55583;53.012;6.556;2023-06-22T00:30:10;69.85;;;41.97;;
52742;SDS011;55583;53.012;6.556;2023-06-22T00:32:36;73.18;;;46.00;;
52742;SDS011;55583;53.012;6.556;2023-06-22T00:35:02;70.65;;;43.03;;
52742;SDS011;55583;53.012;6.556;2023-06-22T00:37:27;69.00;;;41.58;;
52742;SDS011;55583;53.012;6.556;2023-06-22T00:39:54;62.67;;;42.45;;
52742;SDS011;55583;53.012;6.556;2023-06-22T00:42:20;70.80;;;43.65;;
52742;SDS011;55583;53.012;6.556;2023-06-22T00:44:46;73.13;;;43.67;;
52742;SDS011;55583;53.012;6.556;2023-06-22T00:47:15;69.07;;;40.83;;
52742;SDS011;55583;53.012;6.556;2023-06-22T00:49:42;58.15;;;38.63;;
52742;SDS011;55583;53.012;6.556;2023-06-22T00:52:09;69.30;;;40.97;;
52742;SDS011;55583;53.012;6.556;2023-06-22T00:54:38;58.92;;;37.92;;
52742;SDS011;55583;53.012;6.556;2023-06-22T00:57:10;64.95;;;40.45;;
52742;SDS011;55583;53.012;6.556;2023-06-22T00:59:37;67.90;;;40.40;;
52742;SDS011;55583;53.012;6.556;2023-06-22T01:02:04;64.13;;;39.10;;
52742;SDS011;55583;53.012;6.556;2023-06-22T01:04:36;63.35;;;40.22;;
52742;SDS011;55583;53.012;6.556;2023-06-22T01:12:24;72.72;;;40.30;;
52742;SDS011;55583;53.012;6.556;2023-06-22T01:14:55;59.63;;;39.05;;
52742;SDS011;55583;53.012;6.556;2023-06-22T01:17:25;57.90;;;37.28;;
52742;SDS011;55583;53.012;6.556;2023-06-22T01:19:54;68.47;;;42.25;;
52742;SDS011;55583;53.012;6.556;2023-06-22T01:22:24;68.28;;;40.05;;
52742;SDS011;55583;53.012;6.556;2023-06-22T01:27:33;51.80;;;35.47;;
52742;SDS011;55583;53.012;6.556;2023-06-22T01:30:02;54.63;;;35.80;;
52742;SDS011;55583;53.012;6.556;2023-06-22T01:32:31;60.70;;;37.13;;
52742;SDS011;55583;53.012;6.556;2023-06-22T01:35:01;57.75;;;38.13;;
52742;SDS011;55583;53.012;6.556;2023-06-22T01:37:30;53.90;;;34.63;;
52742;SDS011;55583;53.012;6.556;2023-06-22T01:39:57;55.28;;;36.78;;
52742;SDS011;55583;53.012;6.556;2023-06-22T01:42:24;55.83;;;36.38;;
52742;SDS011;55583;53.012;6.556;2023-06-22T01:44:51;60.60;;;38.30;;
52742;SDS011;55583;53.012;6.556;2023-06-22T01:47:18;59.85;;;37.95;;
52742;SDS011;55583;53.012;6.556;2023-06-22T01:49:45;56.40;;;37.05;;
52742;SDS011;55583;53.012;6.556;2023-06-22T01:52:11;58.88;;;36.15;;
52742;SDS011;55583;53.012;6.556;2023-06-22T01:54:37;60.67;;;37.53;;
52742;SDS011;55583;53.012;6.556;2023-06-22T01:57:04;55.92;;;40.05;;
52742;SDS011;55583;53.012;6.556;2023-06-22T01:59:37;61.85;;;40.22;;
52742;SDS011;55583;53.012;6.556;2023-06-22T02:02:11;67.13;;;42.20;;
52742;SDS011;55583;53.012;6.556;2023-06-22T02:04:44;64.25;;;39.55;;
52742;SDS011;55583;53.012;6.556;2023-06-22T02:07:14;67.72;;;41.03;;
52742;SDS011;55583;53.012;6.556;2023-06-22T02:09:45;64.47;;;42.78;;
52742;SDS011;55583;53.012;6.556;2023-06-22T02:12:12;62.15;;;39.45;;
52742;SDS011;55583;53.012;6.556;2023-06-22T02:14:41;74.28;;;47.55;;
52742;SDS011;55583;53.012;6.556;2023-06-22T02:17:08;73.70;;;45.97;;
52742;SDS011;55583;53.012;6.556;2023-06-22T02:19:36;68.85;;;42.97;;
52742;SDS011;55583;53.012;6.556;2023-06-22T02:22:03;79.95;;;48.35;;
52742;SDS011;55583;53.012;6.556;2023-06-22T02:24:29;92.97;;;48.90;;
52742;SDS011;55583;53.012;6.556;2023-06-22T02:27:00;73.03;;;46.13;;
52742;SDS011;55583;53.012;6.556;2023-06-22T02:29:27;83.93;;;47.35;;
52742;SDS011;55583;53.012;6.556;2023-06-22T02:31:53;77.47;;;45.47;;
52742;SDS011;55583;53.012;6.556;2023-06-22T02:34:19;73.07;;;42.50;;
52742;SDS011;55583;53.012;6.556;2023-06-22T02:36:46;63.80;;;41.33;;
52742;SDS011;55583;53.012;6.556;2023-06-22T02:39:22;70.57;;;39.50;;
52742;SDS011;55583;53.012;6.556;2023-06-22T02:44:15;65.97;;;36.92;;
52742;SDS011;55583;53.012;6.556;2023-06-22T02:46:40;63.53;;;37.13;;
52742;SDS011;55583;53.012;6.556;2023-06-22T02:49:06;63.22;;;36.67;;
52742;SDS011;55583;53.012;6.556;2023-06-22T02:51:33;53.58;;;35.00;;
52742;SDS011;55583;53.012;6.556;2023-06-22T02:53:59;57.25;;;36.97;;
52742;SDS011;55583;53.012;6.556;2023-06-22T02:56:25;48.55;;;34.03;;
52742;SDS011;55583;53.012;6.556;2023-06-22T02:58:51;56.15;;;35.80;;
52742;SDS011;55583;53.012;6.556;2023-06-22T03:01:17;57.75;;;36.80;;
52742;SDS011;55583;53.012;6.556;2023-06-22T03:03:49;63.63;;;37.10;;
52742;SDS011;55583;53.012;6.556;2023-06-22T03:06:15;50.03;;;36.08;;
52742;SDS011;55583;53.012;6.556;2023-06-22T03:08:41;52.58;;;36.85;;
52742;SDS011;55583;53.012;6.556;2023-06-22T03:11:07;58.13;;;38.45;;
52742;SDS011;55583;53.012;6.556;2023-06-22T03:13:33;57.97;;;38.25;;
52742;SDS011;55583;53.012;6.556;2023-06-22T03:15:58;68.20;;;43.42;;
52742;SDS011;55583;53.012;6.556;2023-06-22T03:18:24;67.57;;;43.80;;
52742;SDS011;55583;53.012;6.556;2023-06-22T03:20:50;70.25;;;43.42;;
52742;SDS011;55583;53.012;6.556;2023-06-22T03:23:15;74.47;;;46.00;;
52742;SDS011;55583;53.012;6.556;2023-06-22T03:25:42;74.15;;;45.03;;
52742;SDS011;55583;53.012;6.556;2023-06-22T03:28:09;74.15;;;50.17;;
52742;SDS011;55583;53.012;6.556;2023-06-22T03:30:35;87.18;;;50.55;;
52742;SDS011;55583;53.012;6.556;2023-06-22T03:33:01;93.25;;;50.88;;
52742;SDS011;55583;53.012;6.556;2023-06-22T03:35:27;73.95;;;46.13;;
52742;SDS011;55583;53.012;6.556;2023-06-22T03:37:53;90.03;;;52.58;;
52742;SDS011;55583;53.012;6.556;2023-06-22T03:40:18;91.65;;;49.53;;
52742;SDS011;55583;53.012;6.556;2023-06-22T03:42:45;82.53;;;48.25;;
52742;SDS011;55583;53.012;6.556;2023-06-22T03:45:11;83.07;;;48.60;;
52742;SDS011;55583;53.012;6.556;2023-06-22T03:47:36;72.82;;;47.13;;
52742;SDS011;55583;53.012;6.556;2023-06-22T03:50:02;84.63;;;50.83;;
52742;SDS011;55583;53.012;6.556;2023-06-22T03:52:31;86.43;;;51.65;;
52742;SDS011;55583;53.012;6.556;2023-06-22T03:54:57;80.97;;;49.22;;
52742;SDS011;55583;53.012;6.556;2023-06-22T03:57:23;83.68;;;47.22;;
52742;SDS011;55583;53.012;6.556;2023-06-22T03:59:49;99.72;;;53.50;;
52742;SDS011;55583;53.012;6.556;2023-06-22T04:02:15;80.03;;;49.40;;
52742;SDS011;55583;53.012;6.556;2023-06-22T04:04:40;89.40;;;53.83;;
52742;SDS011;55583;53.012;6.556;2023-06-22T04:07:06;88.00;;;51.58;;
52742;SDS011;55583;53.012;6.556;2023-06-22T04:09:32;91.05;;;52.35;;
52742;SDS011;55583;53.012;6.556;2023-06-22T04:11:58;100.20;;;57.78;;
52742;SDS011;55583;53.012;6.556;2023-06-22T04:14:24;83.55;;;53.70;;
52742;SDS011;55583;53.012;6.556;2023-06-22T04:16:49;92.80;;;58.00;;
52742;SDS011;55583;53.012;6.556;2023-06-22T04:19:16;98.60;;;57.70;;
52742;SDS011;55583;53.012;6.556;2023-06-22T04:21:43;102.50;;;59.72;;
52742;SDS011;55583;53.012;6.556;2023-06-22T04:24:09;99.82;;;55.05;;
52742;SDS011;55583;53.012;6.556;2023-06-22T04:26:36;99.97;;;58.90;;
52742;SDS011;55583;53.012;6.556;2023-06-22T04:29:03;82.28;;;52.17;;
52742;SDS011;55583;53.012;6.556;2023-06-22T04:31:31;79.57;;;51.63;;
52742;SDS011;55583;53.012;6.556;2023-06-22T04:34:02;75.93;;;49.75;;
52742;SDS011;55583;53.012;6.556;2023-06-22T04:36:35;83.53;;;51.58;;
52742;SDS011;55583;53.012;6.556;2023-06-22T04:39:05;88.63;;;54.05;;
52742;SDS011;55583;53.012;6.556;2023-06-22T04:41:31;88.25;;;54.75;;
52742;SDS011;55583;53.012;6.556;2023-06-22T04:46:36;93.05;;;57.15;;
52742;SDS011;55583;53.012;6.556;2023-06-22T04:49:06;79.78;;;53.90;;
52742;SDS011;55583;53.012;6.556;2023-06-22T04:51:38;91.05;;;55.85;;
52742;SDS011;55583;53.012;6.556;2023-06-22T04:54:05;85.95;;;51.47;;
52742;SDS011;55583;53.012;6.556;2023-06-22T04:56:32;82.22;;;51.08;;
52742;SDS011;55583;53.012;6.556;2023-06-22T04:58:57;78.90;;;48.67;;
52742;SDS011;55583;53.012;6.556;2023-06-22T05:01:23;83.85;;;50.08;;
52742;SDS011;55583;53.012;6.556;2023-06-22T05:03:50;71.97;;;48.58;;
52742;SDS011;55583;53.012;6.556;2023-06-22T05:06:20;65.93;;;45.65;;
52742;SDS011;55583;53.012;6.556;2023-06-22T05:08:46;69.60;;;45.55;;
52742;SDS011;55583;53.012;6.556;2023-06-22T05:11:12;58.45;;;39.53;;
52742;SDS011;55583;53.012;6.556;2023-06-22T05:13:38;67.53;;;46.78;;
52742;SDS011;55583;53.012;6.556;2023-06-22T05:16:03;66.82;;;44.75;;
52742;SDS011;55583;53.012;6.556;2023-06-22T05:18:31;66.95;;;46.10;;
52742;SDS011;55583;53.012;6.556;2023-06-22T05:20:57;63.95;;;44.65;;
52742;SDS011;55583;53.012;6.556;2023-06-22T05:23:23;72.28;;;48.67;;
52742;SDS011;55583;53.012;6.556;2023-06-22T05:25:49;67.22;;;46.78;;
52742;SDS011;55583;53.012;6.556;2023-06-22T05:28:15;67.47;;;46.08;;
52742;SDS011;55583;53.012;6.556;2023-06-22T05:30:41;68.22;;;43.85;;
52742;SDS011;55583;53.012;6.556;2023-06-22T05:33:07;64.22;;;44.00;;
52742;SDS011;55583;53.012;6.556;2023-06-22T05:35:32;62.00;;;43.42;;
52742;SDS011;55583;53.012;6.556;2023-06-22T05:37:58;64.50;;;46.20;;
52742;SDS011;55583;53.012;6.556;2023-06-22T05:40:23;65.13;;;43.97;;
52742;SDS011;55583;53.012;6.556;2023-06-22T05:42:49;65.20;;;43.10;;
52742;SDS011;55583;53.012;6.556;2023-06-22T05:45:15;64.43;;;43.63;;
52742;SDS011;55583;53.012;6.556;2023-06-22T05:47:40;61.05;;;43.85;;
52742;SDS011;55583;53.012;6.556;2023-06-22T05:50:06;49.63;;;34.08;;
52742;SDS011;55583;53.012;6.556;2023-06-22T05:52:33;63.13;;;43.45;;
52742;SDS011;55583;53.012;6.556;2023-06-22T05:54:59;71.78;;;45.17;;
52742;SDS011;55583;53.012;6.556;2023-06-22T05:57:27;61.08;;;42.72;;
52742;SDS011;55583;53.012;6.556;2023-06-22T05:59:53;64.80;;;43.53;;
52742;SDS011;55583;53.012;6.556;2023-06-22T06:02:22;53.20;;;38.35;;
52742;SDS011;55583;53.012;6.556;2023-06-22T06:04:48;55.70;;;39.08;;
52742;SDS011;55583;53.012;6.556;2023-06-22T06:07:16;53.42;;;36.63;;
52742;SDS011;55583;53.012;6.556;2023-06-22T06:09:41;47.67;;;34.45;;
52742;SDS011;55583;53.012;6.556;2023-06-22T06:12:07;45.72;;;33.53;;
52742;SDS011;55583;53.012;6.556;2023-06-22T06:14:33;42.58;;;31.70;;
52742;SDS011;55583;53.012;6.556;2023-06-22T06:16:59;40.92;;;29.70;;
52742;SDS011;55583;53.012;6.556;2023-06-22T06:19:24;40.53;;;28.95;;
52742;SDS011;55583;53.012;6.556;2023-06-22T06:21:50;37.35;;;26.80;;
52742;SDS011;55583;53.012;6.556;2023-06-22T06:24:16;40.30;;;29.30;;
52742;SDS011;55583;53.012;6.556;2023-06-22T06:26:41;34.53;;;27.50;;
52742;SDS011;55583;53.012;6.556;2023-06-22T06:29:07;33.88;;;23.92;;
52742;SDS011;55583;53.012;6.556;2023-06-22T06:31:32;37.50;;;24.88;;
52742;SDS011;55583;53.012;6.556;2023-06-22T06:33:58;31.27;;;23.50;;
52742;SDS011;55583;53.012;6.556;2023-06-22T06:36:24;31.08;;;24.63;;
52742;SDS011;55583;53.012;6.556;2023-06-22T06:38:49;28.58;;;22.20;;
52742;SDS011;55583;53.012;6.556;2023-06-22T06:41:15;25.98;;;19.55;;
52742;SDS011;55583;53.012;6.556;2023-06-22T06:43:41;24.63;;;19.67;;
52742;SDS011;55583;53.012;6.556;2023-06-22T06:46:08;31.50;;;21.02;;
52742;SDS011;55583;53.012;6.556;2023-06-22T06:48:34;20.30;;;16.05;;
52742;SDS011;55583;53.012;6.556;2023-06-22T06:51:00;26.58;;;18.65;;
52742;SDS011;55583;53.012;6.556;2023-06-22T06:53:25;24.20;;;17.63;;
52742;SDS011;55583;53.012;6.556;2023-06-22T06:55:52;18.00;;;14.60;;
52742;SDS011;55583;53.012;6.556;2023-06-22T06:58:17;22.00;;;17.73;;
52742;SDS011;55583;53.012;6.556;2023-06-22T07:00:43;15.57;;;12.68;;
52742;SDS011;55583;53.012;6.556;2023-06-22T07:03:09;17.50;;;13.05;;
52742;SDS011;55583;53.012;6.556;2023-06-22T07:05:35;17.00;;;11.88;;
52742;SDS011;55583;53.012;6.556;2023-06-22T07:08:01;19.42;;;13.57;;
52742;SDS011;55583;53.012;6.556;2023-06-22T07:10:28;18.20;;;11.80;;
52742;SDS011;55583;53.012;6.556;2023-06-22T07:12:54;15.20;;;11.73;;
52742;SDS011;55583;53.012;6.556;2023-06-22T07:15:20;13.48;;;11.02;;
52742;SDS011;55583;53.012;6.556;2023-06-22T07:17:46;13.02;;;9.88;;
52742;SDS011;55583;53.012;6.556;2023-06-22T07:20:11;12.85;;;9.65;;
52742;SDS011;55583;53.012;6.556;2023-06-22T07:22:37;12.75;;;10.07;;
52742;SDS011;55583;53.012;6.556;2023-06-22T07:25:07;11.38;;;9.40;;
52742;SDS011;55583;53.012;6.556;2023-06-22T07:27:45;12.95;;;9.00;;
52742;SDS011;55583;53.012;6.556;2023-06-22T07:30:24;10.43;;;9.32;;
52742;SDS011;55583;53.012;6.556;2023-06-22T07:32:50;13.85;;;9.90;;
52742;SDS011;55583;53.012;6.556;2023-06-22T07:35:15;12.82;;;9.07;;
52742;SDS011;55583;53.012;6.556;2023-06-22T07:37:44;13.32;;;9.40;;
52742;SDS011;55583;53.012;6.556;2023-06-22T07:40:10;9.30;;;7.53;;
52742;SDS011;55583;53.012;6.556;2023-06-22T07:42:36;10.20;;;7.38;;
52742;SDS011;55583;53.012;6.556;2023-06-22T07:45:05;9.73;;;6.03;;
52742;SDS011;55583;53.012;6.556;2023-06-22T07:47:33;11.70;;;8.70;;
52742;SDS011;55583;53.012;6.556;2023-06-22T07:50:00;10.77;;;7.80;;
52742;SDS011;55583;53.012;6.556;2023-06-22T07:52:27;10.73;;;9.00;;
52742;SDS011;55583;53.012;6.556;2023-06-22T07:54:53;10.43;;;7.78;;
52742;SDS011;55583;53.012;6.556;2023-06-22T07:57:19;10.27;;;8.07;;
52742;SDS011;55583;53.012;6.556;2023-06-22T07:59:45;9.43;;;7.05;;
52742;SDS011;55583;53.012;6.556;2023-06-22T08:02:11;9.90;;;7.80;;
52742;SDS011;55583;53.012;6.556;2023-06-22T08:04:37;9.32;;;7.07;;
52742;SDS011;55583;53.012;6.556;2023-06-22T08:07:03;10.32;;;7.25;;
52742;SDS011;55583;53.012;6.556;2023-06-22T08:09:30;7.78;;;5.82;;
52742;SDS011;55583;53.012;6.556;2023-06-22T08:11:57;9.23;;;5.95;;
52742;SDS011;55583;53.012;6.556;2023-06-22T08:14:26;11.52;;;6.25;;
52742;SDS011;55583;53.012;6.556;2023-06-22T08:16:52;10.90;;;6.47;;
52742;SDS011;55583;53.012;6.556;2023-06-22T08:19:18;11.02;;;7.30;;
52742;SDS011;55583;53.012;6.556;2023-06-22T08:21:43;8.50;;;6.65;;
52742;SDS011;55583;53.012;6.556;2023-06-22T08:24:09;10.07;;;7.63;;
52742;SDS011;55583;53.012;6.556;2023-06-22T08:26:35;10.52;;;6.20;;
52742;SDS011;55583;53.012;6.556;2023-06-22T08:29:02;8.00;;;6.35;;
52742;SDS011;55583;53.012;6.556;2023-06-22T08:31:29;9.70;;;7.25;;
52742;SDS011;55583;53.012;6.556;2023-06-22T08:33:55;9.27;;;7.88;;
52742;SDS011;55583;53.012;6.556;2023-06-22T08:36:21;11.95;;;6.65;;
52742;SDS011;55583;53.012;6.556;2023-06-22T08:38:46;14.10;;;7.65;;
52742;SDS011;55583;53.012;6.556;2023-06-22T08:41:16;12.57;;;7.15;;
52742;SDS011;55583;53.012;6.556;2023-06-22T08:43:42;11.00;;;7.68;;
52742;SDS011;55583;53.012;6.556;2023-06-22T08:46:09;9.25;;;7.10;;
52742;SDS011;55583;53.012;6.556;2023-06-22T08:48:35;10.95;;;6.70;;
52742;SDS011;55583;53.012;6.556;2023-06-22T08:51:01;7.60;;;6.53;;
52742;SDS011;55583;53.012;6.556;2023-06-22T08:53:28;11.65;;;7.07;;
52742;SDS011;55583;53.012;6.556;2023-06-22T08:55:54;14.30;;;8.32;;
52742;SDS011;55583;53.012;6.556;2023-06-22T08:58:19;10.05;;;7.35;;
52742;SDS011;55583;53.012;6.556;2023-06-22T09:00:46;9.77;;;8.60;;
52742;SDS011;55583;53.012;6.556;2023-06-22T09:03:12;11.10;;;6.95;;
52742;SDS011;55583;53.012;6.556;2023-06-22T09:05:38;10.55;;;7.28;;
52742;SDS011;55583;53.012;6.556;2023-06-22T09:08:04;9.73;;;6.15;;
52742;SDS011;55583;53.012;6.556;2023-06-22T09:10:30;8.82;;;6.28;;
52742;SDS011;55583;53.012;6.556;2023-06-22T09:12:56;10.38;;;6.28;;
52742;SDS011;55583;53.012;6.556;2023-06-22T09:15:22;11.50;;;6.68;;
52742;SDS011;55583;53.012;6.556;2023-06-22T09:17:48;8.73;;;6.22;;
52742;SDS011;55583;53.012;6.556;2023-06-22T09:20:13;10.10;;;7.60;;
52742;SDS011;55583;53.012;6.556;2023-06-22T09:22:40;9.23;;;6.40;;
52742;SDS011;55583;53.012;6.556;2023-06-22T09:25:06;10.05;;;7.25;;
52742;SDS011;55583;53.012;6.556;2023-06-22T09:27:32;9.55;;;6.57;;
52742;SDS011;55583;53.012;6.556;2023-06-22T09:29:58;9.02;;;6.03;;
52742;SDS011;55583;53.012;6.556;2023-06-22T09:32:24;7.93;;;6.43;;
52742;SDS011;55583;53.012;6.556;2023-06-22T09:34:50;7.63;;;6.45;;
52742;SDS011;55583;53.012;6.556;2023-06-22T09:37:16;8.10;;;6.72;;
52742;SDS011;55583;53.012;6.556;2023-06-22T09:39:42;11.25;;;6.43;;
52742;SDS011;55583;53.012;6.556;2023-06-22T09:42:07;9.50;;;7.13;;
52742;SDS011;55583;53.012;6.556;2023-06-22T09:44:33;9.10;;;6.88;;
52742;SDS011;55583;53.012;6.556;2023-06-22T09:46:59;9.15;;;6.68;;
52742;SDS011;55583;53.012;6.556;2023-06-22T09:49:25;8.13;;;6.57;;
52742;SDS011;55583;53.012;6.556;2023-06-22T09:51:51;7.65;;;6.15;;
52742;SDS011;55583;53.012;6.556;2023-06-22T09:54:17;8.32;;;6.32;;
52742;SDS011;55583;53.012;6.556;2023-06-22T09:56:43;10.02;;;6.78;;
52742;SDS011;55583;53.012;6.556;2023-06-22T09:59:09;6.72;;;6.03;;
52742;SDS011;55583;53.012;6.556;2023-06-22T10:01:34;9.02;;;6.95;;
52742;SDS011;55583;53.012;6.556;2023-06-22T10:04:01;8.27;;;6.60;;
52742;SDS011;55583;53.012;6.556;2023-06-22T10:06:27;8.15;;;5.78;;
52742;SDS011;55583;53.012;6.556;2023-06-22T10:08:53;8.50;;;5.18;;
52742;SDS011;55583;53.012;6.556;2023-06-22T10:11:19;8.80;;;5.88;;
52742;SDS011;55583;53.012;6.556;2023-06-22T10:13:44;8.32;;;6.05;;
52742;SDS011;55583;53.012;6.556;2023-06-22T10:16:10;10.27;;;7.05;;
52742;SDS011;55583;53.012;6.556;2023-06-22T10:18:36;9.45;;;7.18;;
52742;SDS011;55583;53.012;6.556;2023-06-22T10:21:01;6.15;;;5.55;;
52742;SDS011;55583;53.012;6.556;2023-06-22T10:23:27;9.23;;;5.43;;
52742;SDS011;55583;53.012;6.556;2023-06-22T10:25:53;10.50;;;5.93;;
52742;SDS011;55583;53.012;6.556;2023-06-22T10:28:18;8.10;;;6.65;;
52742;SDS011;55583;53.012;6.556;2023-06-22T10:30:44;9.65;;;5.07;;
52742;SDS011;55583;53.012;6.556;2023-06-22T10:33:10;7.40;;;5.53;;
52742;SDS011;55583;53.012;6.556;2023-06-22T10:35:37;9.43;;;5.68;;
52742;SDS011;55583;53.012;6.556;2023-06-22T10:38:03;6.30;;;5.22;;
52742;SDS011;55583;53.012;6.556;2023-06-22T10:40:29;7.00;;;4.85;;
52742;SDS011;55583;53.012;6.556;2023-06-22T10:42:55;4.78;;;4.30;;
52742;SDS011;55583;53.012;6.556;2023-06-22T10:45:21;6.63;;;4.20;;
52742;SDS011;55583;53.012;6.556;2023-06-22T10:47:46;6.38;;;4.05;;
52742;SDS011;55583;53.012;6.556;2023-06-22T10:50:12;8.10;;;4.60;;
52742;SDS011;55583;53.012;6.556;2023-06-22T10:52:38;4.50;;;3.75;;
52742;SDS011;55583;53.012;6.556;2023-06-22T10:55:04;5.85;;;4.32;;
52742;SDS011;55583;53.012;6.556;2023-06-22T10:57:31;6.35;;;4.45;;
52742;SDS011;55583;53.012;6.556;2023-06-22T10:59:56;4.82;;;4.03;;
52742;SDS011;55583;53.012;6.556;2023-06-22T11:02:22;4.93;;;4.18;;
52742;SDS011;55583;53.012;6.556;2023-06-22T11:04:49;6.20;;;4.70;;
52742;SDS011;55583;53.012;6.556;2023-06-22T11:07:15;5.53;;;3.92;;
52742;SDS011;55583;53.012;6.556;2023-06-22T11:09:42;6.28;;;4.78;;
52742;SDS011;55583;53.012;6.556;2023-06-22T11:12:08;6.43;;;4.90;;
52742;SDS011;55583;53.012;6.556;2023-06-22T11:14:34;5.28;;;3.88;;
52742;SDS011;55583;53.012;6.556;2023-06-22T11:17:00;5.47;;;4.57;;
52742;SDS011;55583;53.012;6.556;2023-06-22T11:19:26;5.10;;;4.45;;
52742;SDS011;55583;53.012;6.556;2023-06-22T11:21:51;6.22;;;5.45;;
52742;SDS011;55583;53.012;6.556;2023-06-22T11:24:17;6.20;;;5.07;;
52742;SDS011;55583;53.012;6.556;2023-06-22T11:26:43;7.68;;;5.10;;
52742;SDS011;55583;53.012;6.556;2023-06-22T11:29:08;5.30;;;4.80;;
52742;SDS011;55583;53.012;6.556;2023-06-22T11:31:35;9.13;;;5.07;;
52742;SDS011;55583;53.012;6.556;2023-06-22T11:34:01;7.65;;;4.80;;
52742;SDS011;55583;53.012;6.556;2023-06-22T11:36:27;5.45;;;4.93;;
52742;SDS011;55583;53.012;6.556;2023-06-22T11:38:54;7.03;;;4.75;;
52742;SDS011;55583;53.012;6.556;2023-06-22T11:41:20;6.85;;;5.20;;
52742;SDS011;55583;53.012;6.556;2023-06-22T11:43:45;5.65;;;4.72;;
52742;SDS011;55583;53.012;6.556;2023-06-22T11:46:11;6.82;;;5.03;;
52742;SDS011;55583;53.012;6.556;2023-06-22T11:48:37;5.55;;;4.95;;
52742;SDS011;55583;53.012;6.556;2023-06-22T11:51:03;6.80;;;4.60;;
52742;SDS011;55583;53.012;6.556;2023-06-22T11:53:28;7.10;;;4.63;;
52742;SDS011;55583;53.012;6.556;2023-06-22T11:55:54;10.35;;;6.22;;
52742;SDS011;55583;53.012;6.556;2023-06-22T11:58:21;9.73;;;6.28;;
52742;SDS011;55583;53.012;6.556;2023-06-22T12:00:47;7.70;;;4.35;;
52742;SDS011;55583;53.012;6.556;2023-06-22T12:03:13;8.13;;;5.28;;
52742;SDS011;55583;53.012;6.556;2023-06-22T12:05:39;5.80;;;4.85;;
52742;SDS011;55583;53.012;6.556;2023-06-22T12:08:06;8.35;;;5.15;;
52742;SDS011;55583;53.012;6.556;2023-06-22T12:10:31;7.75;;;5.15;;
52742;SDS011;55583;53.012;6.556;2023-06-22T12:12:57;5.78;;;4.85;;
52742;SDS011;55583;53.012;6.556;2023-06-22T12:15:24;10.45;;;5.00;;
52742;SDS011;55583;53.012;6.556;2023-06-22T12:17:50;5.93;;;5.40;;
52742;SDS011;55583;53.012;6.556;2023-06-22T12:20:16;6.88;;;4.97;;
52742;SDS011;55583;53.012;6.556;2023-06-22T12:22:42;5.57;;;4.53;;
52742;SDS011;55583;53.012;6.556;2023-06-22T12:25:08;7.47;;;5.03;;
52742;SDS011;55583;53.012;6.556;2023-06-22T12:27:35;9.52;;;4.22;;
52742;SDS011;55583;53.012;6.556;2023-06-22T12:30:00;8.90;;;4.65;;
52742;SDS011;55583;53.012;6.556;2023-06-22T12:32:27;7.55;;;4.90;;
52742;SDS011;55583;53.012;6.556;2023-06-22T12:34:52;8.52;;;5.00;;
52742;SDS011;55583;53.012;6.556;2023-06-22T12:37:19;7.03;;;4.32;;
52742;SDS011;55583;53.012;6.556;2023-06-22T12:39:45;5.78;;;5.18;;
52742;SDS011;55583;53.012;6.556;2023-06-22T12:42:10;7.15;;;4.45;;
52742;SDS011;55583;53.012;6.556;2023-06-22T12:44:37;5.95;;;4.85;;
52742;SDS011;55583;53.012;6.556;2023-06-22T12:47:04;5.90;;;4.85;;
52742;SDS011;55583;53.012;6.556;2023-06-22T12:49:30;8.75;;;5.70;;
52742;SDS011;55583;53.012;6.556;2023-06-22T12:51:56;8.20;;;4.80;;
52742;SDS011;55583;53.012;6.556;2023-06-22T12:54:22;6.88;;;5.93;;
52742;SDS011;55583;53.012;6.556;2023-06-22T12:56:49;9.10;;;5.25;;
52742;SDS011;55583;53.012;6.556;2023-06-22T12:59:15;5.82;;;5.07;;
52742;SDS011;55583;53.012;6.556;2023-06-22T13:01:42;6.85;;;5.00;;
52742;SDS011;55583;53.012;6.556;2023-06-22T13:04:10;5.40;;;4.82;;
52742;SDS011;55583;53.012;6.556;2023-06-22T13:06:43;9.32;;;5.88;;
52742;SDS011;55583;53.012;6.556;2023-06-22T13:09:12;10.30;;;5.22;;
52742;SDS011;55583;53.012;6.556;2023-06-22T13:11:38;10.88;;;6.07;;
52742;SDS011;55583;53.012;6.556;2023-06-22T13:14:04;7.60;;;5.45;;
52742;SDS011;55583;53.012;6.556;2023-06-22T13:16:30;7.50;;;5.70;;
52742;SDS011;55583;53.012;6.556;2023-06-22T13:18:55;9.55;;;5.85;;
52742;SDS011;55583;53.012;6.556;2023-06-22T13:21:21;7.65;;;5.82;;
52742;SDS011;55583;53.012;6.556;2023-06-22T13:23:46;7.40;;;5.20;;
52742;SDS011;55583;53.012;6.556;2023-06-22T13:26:12;6.40;;;4.93;;
52742;SDS011;55583;53.012;6.556;2023-06-22T13:28:38;11.10;;;5.43;;
52742;SDS011;55583;53.012;6.556;2023-06-22T13:31:04;8.23;;;6.00;;
52742;SDS011;55583;53.012;6.556;2023-06-22T13:33:29;10.32;;;6.90;;
52742;SDS011;55583;53.012;6.556;2023-06-22T13:35:55;7.55;;;6.13;;
52742;SDS011;55583;53.012;6.556;2023-06-22T13:38:20;11.15;;;7.60;;
52742;SDS011;55583;53.012;6.556;2023-06-22T13:40:47;11.73;;;6.55;;
52742;SDS011;55583;53.012;6.556;2023-06-22T13:43:13;9.27;;;7.18;;
52742;SDS011;55583;53.012;6.556;2023-06-22T13:45:40;8.27;;;6.18;;
52742;SDS011;55583;53.012;6.556;2023-06-22T13:48:07;11.15;;;8.05;;
52742;SDS011;55583;53.012;6.556;2023-06-22T13:50:32;12.70;;;7.63;;
52742;SDS011;55583;53.012;6.556;2023-06-22T13:52:58;8.00;;;5.95;;
52742;SDS011;55583;53.012;6.556;2023-06-22T13:55:24;14.00;;;6.82;;
52742;SDS011;55583;53.012;6.556;2023-06-22T13:57:49;9.38;;;6.57;;
52742;SDS011;55583;53.012;6.556;2023-06-22T14:00:16;9.70;;;7.20;;
52742;SDS011;55583;53.012;6.556;2023-06-22T14:02:42;8.05;;;6.10;;
52742;SDS011;55583;53.012;6.556;2023-06-22T14:05:08;14.50;;;8.88;;
52742;SDS011;55583;53.012;6.556;2023-06-22T14:07:34;12.35;;;8.07;;
52742;SDS011;55583;53.012;6.556;2023-06-22T14:09:59;8.93;;;7.68;;
52742;SDS011;55583;53.012;6.556;2023-06-22T14:12:25;10.93;;;7.45;;
52742;SDS011;55583;53.012;6.556;2023-06-22T14:14:51;9.63;;;7.95;;
52742;SDS011;55583;53.012;6.556;2023-06-22T14:17:17;13.35;;;9.63;;
52742;SDS011;55583;53.012;6.556;2023-06-22T14:19:48;14.18;;;8.57;;
52742;SDS011;55583;53.012;6.556;2023-06-22T14:22:14;9.70;;;7.93;;
52742;SDS011;55583;53.012;6.556;2023-06-22T14:24:40;9.88;;;7.70;;
52742;SDS011;55583;53.012;6.556;2023-06-22T14:27:06;12.63;;;8.45;;
52742;SDS011;55583;53.012;6.556;2023-06-22T14:29:33;10.52;;;8.85;;
52742;SDS011;55583;53.012;6.556;2023-06-22T14:31:59;11.77;;;8.38;;
52742;SDS011;55583;53.012;6.556;2023-06-22T14:34:25;8.60;;;6.93;;
52742;SDS011;55583;53.012;6.556;2023-06-22T14:36:51;11.75;;;7.05;;
52742;SDS011;55583;53.012;6.556;2023-06-22T14:39:16;14.00;;;6.60;;
52742;SDS011;55583;53.012;6.556;2023-06-22T14:41:42;10.50;;;6.45;;